Time;durP1;ratioP1;P1;durP2;ratioP2;P2;SDS_P1;SDS_P2;PMS_P1;PMS_P2;Temp;Humidity;BMP_temperature;BMP_pressure;BME280_temperature;BME280_humidity;BME280_pressure;Samples;Min_cycle;Max_cycle;Signal;HPM_P1;HPM_P2
2021/12/16 00:02:24;;;;;;;13.70;10.43;;;3.70;99.90;;;;;;5016301;28;20220;-64
2021/12/16 00:07:34;;;;;;;17.85;11.38;;;3.60;99.90;;;;;;5050759;28;20287;-64
2021/12/16 00:10:16;;;;;;;13.68;10.63;;;3.60;99.90;;;;;;5050952;28;20272;-64
2021/12/16 00:32:37;;;;;;;17.65;12.20;;;3.50;99.90;;;;;;5049760;28;20220;-65
2021/12/16 00:35:04;;;;;;;16.90;11.82;;;3.50;99.90;;;;;;5050676;28;20201;-65
2021/12/16 00:37:31;;;;;;;14.50;11.75;;;3.50;99.90;;;;;;5049615;28;20225;-65
2021/12/16 00:39:58;;;;;;;13.93;11.80;;;3.50;99.90;;;;;;5049032;28;20289;-65
2021/12/16 00:42:37;;;;;;;16.10;12.05;;;3.50;99.90;;;;;;5049620;28;20228;-65
2021/12/16 00:45:29;;;;;;;15.45;12.10;;;3.60;99.90;;;;;;5050742;28;20209;-65
2021/12/16 00:47:59;;;;;;;16.20;13.07;;;3.50;99.90;;;;;;5050160;28;20209;-65
2021/12/16 00:56:02;;;;;;;16.38;11.80;;;3.50;99.90;;;;;;5050289;28;20387;-65
2021/12/16 00:58:38;;;;;;;13.95;11.50;;;3.50;99.90;;;;;;5050362;28;20236;-65
2021/12/16 01:01:08;;;;;;;17.80;11.25;;;3.50;99.90;;;;;;5048417;28;20200;-65
2021/12/16 01:03:43;;;;;;;13.88;11.68;;;3.60;99.90;;;;;;5029838;28;20225;-65
2021/12/16 01:06:35;;;;;;;15.95;12.00;;;3.60;99.90;;;;;;5030007;28;20216;-65
2021/12/16 01:10:01;;;;;;;15.70;10.82;;;3.60;99.90;;;;;;5030045;28;20206;-65
2021/12/16 01:34:50;;;;;;;19.55;13.73;;;3.60;99.90;;;;;;5050492;28;20711;-65
2021/12/16 01:37:50;;;;;;;17.83;12.10;;;3.40;99.90;;;;;;5050399;28;20231;-64
2021/12/16 01:40:36;;;;;;;19.27;13.60;;;3.40;99.90;;;;;;5050206;28;20205;-65
2021/12/16 01:46:11;;;;;;;17.63;13.80;;;3.30;99.90;;;;;;5050120;28;20198;-65
2021/12/16 01:51:35;;;;;;;21.30;14.90;;;3.30;99.90;;;;;;5048692;28;20204;-65
2021/12/16 01:54:36;;;;;;;19.00;13.27;;;3.30;99.90;;;;;;5050009;28;20228;-64
2021/12/16 01:57:10;;;;;;;18.95;13.38;;;3.30;99.90;;;;;;5048954;28;20221;-65
2021/12/16 01:59:40;;;;;;;18.08;12.75;;;3.20;99.90;;;;;;5049816;28;20204;-65
2021/12/16 02:02:15;;;;;;;21.58;14.55;;;3.20;99.90;;;;;;5049113;28;20204;-64
2021/12/16 02:05:07;;;;;;;17.20;12.65;;;3.20;99.90;;;;;;5049237;28;20211;-64
2021/12/16 02:07:51;;;;;;;18.58;12.40;;;3.30;99.90;;;;;;5049794;28;20637;-65
2021/12/16 02:10:23;;;;;;;18.77;13.35;;;3.30;99.90;;;;;;5050139;28;20255;-64
2021/12/16 02:12:59;;;;;;;20.55;12.40;;;3.30;99.90;;;;;;5048766;28;20653;-64
2021/12/16 02:29:20;;;;;;;22.42;12.82;;;3.30;99.90;;;;;;5049706;28;20578;-65
2021/12/16 02:31:55;;;;;;;17.10;11.95;;;3.30;99.90;;;;;;5048892;28;20209;-65
2021/12/16 02:34:29;;;;;;;19.15;12.35;;;3.40;99.90;;;;;;5049161;28;20200;-65
2021/12/16 02:36:57;;;;;;;17.50;12.02;;;3.40;99.90;;;;;;5051828;28;20568;-65
2021/12/16 02:39:27;;;;;;;15.63;11.82;;;3.40;99.90;;;;;;5053378;28;20665;-65
2021/12/16 02:41:56;;;;;;;18.70;12.27;;;3.40;99.90;;;;;;5052341;28;20205;-64
2021/12/16 02:44:30;;;;;;;16.73;11.63;;;3.50;99.90;;;;;;5053594;28;20201;-65
2021/12/16 02:49:47;;;;;;;16.08;11.57;;;3.50;99.90;;;;;;5052767;28;20401;-65
2021/12/16 02:52:17;;;;;;;16.23;11.13;;;3.60;99.90;;;;;;5052775;28;20225;-65
2021/12/16 02:54:44;;;;;;;15.75;11.27;;;3.50;99.90;;;;;;5052878;28;20220;-65
2021/12/16 02:57:11;;;;;;;18.67;12.20;;;3.50;99.90;;;;;;5052731;28;20271;-65
2021/12/16 02:59:38;;;;;;;14.80;10.98;;;3.50;99.90;;;;;;5053120;28;20205;-65
2021/12/16 03:02:11;;;;;;;16.95;12.82;;;3.50;99.90;;;;;;5052604;28;20201;-65
2021/12/16 03:04:41;;;;;;;17.80;12.43;;;3.50;99.90;;;;;;5052397;28;20205;-65
2021/12/16 03:07:11;;;;;;;16.63;12.15;;;3.50;99.90;;;;;;5053286;28;20208;-65
2021/12/16 03:10:09;;;;;;;17.10;12.10;;;3.40;99.90;;;;;;5052427;28;20269;-65
2021/12/16 03:12:52;;;;;;;17.38;12.15;;;3.50;99.90;;;;;;5051302;28;20603;-65
2021/12/16 03:15:35;;;;;;;16.27;12.70;;;3.50;99.90;;;;;;5053254;28;20205;-65
2021/12/16 03:18:09;;;;;;;16.90;12.40;;;3.50;99.90;;;;;;5051663;28;20220;-65
2021/12/16 03:20:42;;;;;;;18.52;12.77;;;3.50;99.90;;;;;;5052550;28;20204;-65
2021/12/16 03:23:25;;;;;;;16.83;11.82;;;3.50;99.90;;;;;;5052112;28;20221;-65
2021/12/16 03:26:09;;;;;;;19.83;12.35;;;3.40;99.90;;;;;;5051427;28;20211;-65
2021/12/16 03:28:59;;;;;;;19.50;12.38;;;3.50;99.90;;;;;;5052734;28;20295;-65
2021/12/16 03:31:44;;;;;;;20.70;13.95;;;3.50;99.90;;;;;;5051563;28;20220;-64
2021/12/16 03:37:14;;;;;;;19.48;13.05;;;3.50;99.90;;;;;;5053003;28;20220;-65
2021/12/16 03:39:47;;;;;;;21.30;13.23;;;3.50;99.90;;;;;;5052238;28;20300;-65
2021/12/16 03:42:18;;;;;;;20.80;14.30;;;3.50;99.90;;;;;;5052029;28;20228;-65
2021/12/16 03:44:55;;;;;;;20.48;13.32;;;3.60;99.90;;;;;;5052313;28;20668;-64
2021/12/16 03:47:28;;;;;;;20.42;12.85;;;3.60;99.90;;;;;;5051928;28;20246;-65
2021/12/16 03:49:55;;;;;;;20.85;12.48;;;3.60;99.90;;;;;;5051655;28;20205;-65
2021/12/16 03:52:23;;;;;;;20.77;13.48;;;3.70;99.90;;;;;;5051848;28;20248;-65
2021/12/16 03:54:53;;;;;;;18.90;13.00;;;3.70;99.90;;;;;;5051528;28;20718;-65
2021/12/16 03:57:24;;;;;;;18.20;14.00;;;3.70;99.90;;;;;;5051255;28;20225;-65
2021/12/16 03:59:52;;;;;;;20.63;13.98;;;3.70;99.90;;;;;;5052383;28;20627;-64
2021/12/16 04:02:25;;;;;;;19.50;12.50;;;3.70;99.90;;;;;;5050930;28;20236;-65
2021/12/16 04:04:52;;;;;;;20.42;13.35;;;3.70;99.90;;;;;;5052230;28;20208;-65
2021/12/16 04:07:21;;;;;;;23.42;12.70;;;3.70;99.90;;;;;;5051790;28;20200;-65
2021/12/16 04:09:50;;;;;;;19.92;13.65;;;3.70;99.90;;;;;;5052239;28;20201;-65
2021/12/16 04:12:20;;;;;;;21.58;13.90;;;3.70;99.90;;;;;;5050557;28;20232;-64
2021/12/16 04:14:50;;;;;;;20.13;13.95;;;3.70;99.90;;;;;;5052094;28;20205;-65
2021/12/16 04:17:20;;;;;;;21.20;14.32;;;3.60;99.90;;;;;;5051868;28;20232;-65
2021/12/16 04:19:47;;;;;;;22.70;15.10;;;3.60;99.90;;;;;;5051431;28;20208;-65
2021/12/16 04:22:17;;;;;;;19.00;13.23;;;3.60;99.90;;;;;;5051685;28;20209;-65
2021/12/16 04:24:45;;;;;;;22.40;14.25;;;3.50;99.90;;;;;;5050768;28;20292;-65
2021/12/16 04:27:13;;;;;;;23.20;13.48;;;3.50;99.90;;;;;;5051461;28;20209;-65
2021/12/16 04:29:40;;;;;;;19.83;12.45;;;3.50;99.90;;;;;;5051154;28;20215;-65
2021/12/16 04:32:09;;;;;;;22.92;14.90;;;3.50;99.90;;;;;;5046932;28;20667;-64
2021/12/16 04:34:36;;;;;;;20.63;13.98;;;3.60;99.90;;;;;;5050087;28;20197;-64
2021/12/16 04:37:04;;;;;;;20.88;12.15;;;3.60;99.90;;;;;;5049077;28;20225;-64
2021/12/16 04:39:33;;;;;;;21.20;13.98;;;3.60;99.90;;;;;;5049050;28;20209;-65
2021/12/16 04:42:01;;;;;;;18.67;13.32;;;3.50;99.90;;;;;;5049009;28;20209;-65
2021/12/16 04:44:28;;;;;;;27.55;15.25;;;3.50;99.90;;;;;;5050690;28;20217;-64
2021/12/16 04:46:57;;;;;;;21.88;13.73;;;3.50;99.90;;;;;;5049952;28;20676;-64
2021/12/16 04:49:26;;;;;;;25.70;15.50;;;3.50;99.90;;;;;;5051029;28;20583;-64
2021/12/16 04:51:56;;;;;;;28.65;15.55;;;3.50;99.90;;;;;;5046919;28;20659;-64
2021/12/16 04:54:25;;;;;;;26.48;16.05;;;3.40;99.90;;;;;;5045777;28;20212;-64
2021/12/16 04:56:54;;;;;;;28.73;16.35;;;3.40;99.90;;;;;;5037179;28;20221;-63
2021/12/16 04:59:23;;;;;;;29.70;15.85;;;3.40;99.90;;;;;;5050287;28;20212;-63
2021/12/16 05:01:52;;;;;;;27.02;16.40;;;3.30;99.90;;;;;;5047687;28;20209;-63
2021/12/16 05:04:20;;;;;;;32.13;16.70;;;3.30;99.90;;;;;;5050692;28;20204;-63
2021/12/16 05:06:48;;;;;;;29.23;17.58;;;3.30;99.90;;;;;;5050192;28;20208;-63
2021/12/16 05:09:38;;;;;;;26.17;15.32;;;3.30;99.90;;;;;;5050595;28;20207;-63
2021/12/16 05:12:03;;;;;;;27.30;16.13;;;3.30;99.90;;;;;;5047922;28;20328;-63
2021/12/16 05:14:30;;;;;;;25.85;15.68;;;3.30;99.90;;;;;;5049981;28;20683;-63
2021/12/16 05:16:57;;;;;;;26.73;15.43;;;3.30;99.90;;;;;;5048282;28;20232;-63
2021/12/16 05:19:24;;;;;;;22.00;13.75;;;3.30;99.90;;;;;;5050173;28;20201;-63
2021/12/16 05:21:57;;;;;;;25.85;15.35;;;3.30;99.90;;;;;;5046271;28;20721;-63
2021/12/16 05:24:26;;;;;;;24.35;16.00;;;3.40;99.90;;;;;;5050487;28;20200;-64
2021/12/16 05:26:55;;;;;;;25.67;13.95;;;3.40;99.90;;;;;;5049530;28;20766;-63
2021/12/16 05:29:23;;;;;;;27.05;15.57;;;3.50;99.90;;;;;;5050616;28;20201;-64
2021/12/16 05:31:50;;;;;;;26.17;13.68;;;3.50;99.90;;;;;;5049406;28;20596;-63
2021/12/16 05:34:17;;;;;;;21.60;13.45;;;3.50;99.90;;;;;;5050501;28;20228;-63
2021/12/16 05:36:45;;;;;;;27.17;14.75;;;3.60;99.90;;;;;;5049344;28;20201;-63
2021/12/16 05:39:14;;;;;;;21.38;12.65;;;3.60;99.90;;;;;;5050555;28;20571;-63
2021/12/16 05:41:41;;;;;;;21.42;12.88;;;3.60;99.90;;;;;;5047228;28;20190;-64
2021/12/16 05:44:09;;;;;;;19.40;11.65;;;3.60;99.90;;;;;;5050432;28;20240;-63
2021/12/16 05:46:37;;;;;;;19.10;11.63;;;3.60;99.90;;;;;;5049622;28;20201;-63
2021/12/16 05:49:06;;;;;;;20.33;12.30;;;3.60;99.90;;;;;;5050031;28;20231;-64
2021/12/16 05:51:35;;;;;;;24.38;12.90;;;3.50;99.90;;;;;;5049811;28;20626;-63
2021/12/16 05:54:06;;;;;;;19.05;12.82;;;3.50;99.90;;;;;;5049597;28;20236;-63
2021/12/16 05:57:03;;;;;;;23.05;12.93;;;3.60;99.90;;;;;;5131596;22;20232;-93
2021/12/16 06:05:40;;;;;;;19.27;11.95;;;3.70;99.90;;;;;;5106946;27;20621;-69
2021/12/16 06:08:07;;;;;;;23.02;12.10;;;3.70;99.90;;;;;;5107904;28;20191;-70
2021/12/16 06:13:22;;;;;;;24.48;13.25;;;3.70;99.90;;;;;;5096318;28;20210;-69
2021/12/16 06:22:19;;;;;;;22.63;14.10;;;3.70;99.90;;;;;;5087054;28;20705;-69
2021/12/16 06:27:05;;;;;;;23.52;13.85;;;3.80;99.90;;;;;;5086455;28;20207;-69
2021/12/16 06:29:33;;;;;;;24.33;13.43;;;3.80;99.90;;;;;;5087301;28;20302;-70
2021/12/16 06:31:59;;;;;;;22.05;12.60;;;3.70;99.90;;;;;;5086546;28;20203;-70
2021/12/16 06:34:26;;;;;;;25.17;13.23;;;3.70;99.90;;;;;;5087264;28;20203;-71
2021/12/16 06:36:54;;;;;;;25.00;14.35;;;3.70;99.90;;;;;;5086517;28;20265;-71
2021/12/16 06:39:21;;;;;;;22.38;12.55;;;3.80;99.90;;;;;;5087107;28;20693;-71
2021/12/16 06:41:48;;;;;;;24.90;13.50;;;3.70;99.90;;;;;;5085594;28;20230;-71
2021/12/16 06:44:20;;;;;;;24.35;13.15;;;3.70;99.90;;;;;;5086988;28;20276;-71
2021/12/16 06:46:49;;;;;;;24.42;12.98;;;3.70;99.90;;;;;;5086065;28;20743;-72
2021/12/16 06:49:17;;;;;;;28.25;14.63;;;3.80;99.90;;;;;;5086380;28;20666;-72
2021/12/16 06:51:50;;;;;;;21.25;12.50;;;3.80;99.90;;;;;;5085832;28;20295;-71
2021/12/16 06:54:25;;;;;;;22.67;14.13;;;3.80;99.90;;;;;;5086424;28;20211;-70
2021/12/16 06:57:01;;;;;;;23.13;13.43;;;3.80;99.90;;;;;;5083791;28;20579;-71
2021/12/16 06:59:31;;;;;;;27.77;14.00;;;3.90;99.90;;;;;;5086066;28;20207;-71
2021/12/16 07:02:11;;;;;;;22.40;12.82;;;3.90;99.90;;;;;;5086447;28;20207;-70
2021/12/16 07:04:38;;;;;;;21.20;12.40;;;3.80;99.90;;;;;;5086503;28;20680;-70
2021/12/16 07:07:07;;;;;;;24.23;14.30;;;3.80;99.90;;;;;;5086946;28;20233;-71
2021/12/16 07:09:36;;;;;;;23.35;14.20;;;3.80;99.90;;;;;;5086034;28;20575;-70
2021/12/16 07:12:05;;;;;;;23.88;13.18;;;3.80;99.90;;;;;;5086019;28;20208;-70
2021/12/16 07:14:39;;;;;;;23.52;14.07;;;3.80;99.90;;;;;;5086515;28;20286;-71
2021/12/16 07:17:08;;;;;;;23.45;13.45;;;3.80;99.90;;;;;;5072471;28;20341;-70
2021/12/16 07:19:35;;;;;;;21.80;14.65;;;3.80;99.90;;;;;;5072458;28;20686;-70
2021/12/16 07:22:03;;;;;;;20.88;12.60;;;3.90;99.90;;;;;;5072518;28;20215;-71
2021/12/16 07:24:29;;;;;;;22.63;14.02;;;3.90;99.90;;;;;;5072510;28;20228;-70
2021/12/16 07:26:57;;;;;;;19.80;12.48;;;3.90;99.90;;;;;;5072698;28;20200;-70
2021/12/16 07:29:25;;;;;;;25.98;13.75;;;3.90;99.90;;;;;;5072777;28;20591;-71
2021/12/16 07:31:52;;;;;;;24.90;14.10;;;4.00;99.90;;;;;;5072331;28;20254;-70
2021/12/16 07:34:19;;;;;;;18.15;11.60;;;3.90;99.90;;;;;;5072695;28;20612;-70
2021/12/16 07:36:47;;;;;;;16.92;10.80;;;4.00;99.90;;;;;;5066629;28;20239;-71
2021/12/16 07:39:19;;;;;;;17.83;11.25;;;3.90;99.90;;;;;;5052536;28;20661;-70
2021/12/16 07:41:49;;;;;;;21.85;13.02;;;4.00;99.90;;;;;;5050205;28;20209;-70
2021/12/16 07:44:17;;;;;;;20.95;13.80;;;4.00;99.90;;;;;;5051696;28;20232;-70
2021/12/16 07:46:46;;;;;;;18.80;12.15;;;4.00;99.90;;;;;;5051169;28;20236;-70
2021/12/16 07:49:16;;;;;;;18.25;10.75;;;4.10;99.90;;;;;;5052081;28;20700;-70
2021/12/16 07:51:44;;;;;;;18.65;11.95;;;4.10;99.90;;;;;;5049813;28;20204;-69
2021/12/16 07:54:13;;;;;;;16.10;10.25;;;4.10;99.90;;;;;;5051724;28;20229;-70
2021/12/16 07:56:41;;;;;;;20.75;11.48;;;4.10;99.90;;;;;;5050756;28;20216;-70
2021/12/16 07:59:08;;;;;;;18.25;12.20;;;4.10;99.90;;;;;;5051124;28;20205;-70
2021/12/16 08:01:37;;;;;;;18.98;10.70;;;4.10;99.90;;;;;;5050507;28;20580;-69
2021/12/16 08:04:04;;;;;;;16.13;11.02;;;4.10;99.90;;;;;;5050554;28;20876;-70
2021/12/16 08:06:33;;;;;;;16.38;10.50;;;4.00;99.90;;;;;;5050983;28;20583;-70
2021/12/16 08:09:05;;;;;;;19.50;11.80;;;4.10;99.90;;;;;;5050950;28;20197;-70
2021/12/16 08:11:35;;;;;;;17.58;11.88;;;4.10;99.90;;;;;;5050110;28;20216;-70
2021/12/16 08:14:03;;;;;;;18.60;11.32;;;4.20;99.90;;;;;;5051002;28;20632;-71
2021/12/16 08:16:31;;;;;;;16.35;10.73;;;4.20;99.90;;;;;;5050649;28;20313;-70
2021/12/16 08:18:59;;;;;;;16.67;9.90;;;4.20;99.90;;;;;;5051354;28;20204;-70
2021/12/16 08:21:29;;;;;;;17.40;11.07;;;4.30;99.90;;;;;;5049651;28;20212;-70
2021/12/16 08:23:56;;;;;;;18.23;11.20;;;4.30;99.90;;;;;;5051022;28;20233;-70
2021/12/16 08:26:23;;;;;;;14.15;9.40;;;4.30;99.90;;;;;;5049922;28;20668;-70
2021/12/16 08:28:50;;;;;;;17.23;10.35;;;4.40;99.90;;;;;;5049845;28;20201;-70
2021/12/16 08:31:17;;;;;;;17.33;11.50;;;4.40;99.90;;;;;;5050181;28;20205;-70
2021/12/16 08:33:44;;;;;;;21.10;11.60;;;4.40;99.90;;;;;;5050783;28;20225;-70
2021/12/16 08:36:13;;;;;;;20.00;12.38;;;4.40;99.90;;;;;;5050051;28;20204;-70
2021/12/16 08:38:40;;;;;;;20.23;11.65;;;4.50;99.90;;;;;;5051138;28;20215;-70
2021/12/16 08:41:16;;;;;;;19.92;10.95;;;4.50;99.90;;;;;;5049956;28;20229;-70
2021/12/16 08:43:44;;;;;;;16.40;11.32;;;4.50;99.90;;;;;;5050261;28;20228;-70
2021/12/16 08:46:12;;;;;;;16.48;10.73;;;4.50;99.90;;;;;;5050367;28;20228;-70
2021/12/16 08:48:41;;;;;;;18.60;11.75;;;4.50;99.90;;;;;;5050265;28;20205;-70
2021/12/16 08:51:08;;;;;;;15.40;11.20;;;4.40;99.90;;;;;;5049408;28;20259;-70
2021/12/16 08:53:37;;;;;;;16.17;10.52;;;4.40;99.90;;;;;;5050352;28;20663;-70
2021/12/16 08:56:05;;;;;;;17.77;11.88;;;4.40;99.90;;;;;;5049449;28;20201;-71
2021/12/16 08:58:33;;;;;;;17.65;11.13;;;4.40;99.90;;;;;;5049988;28;20209;-70
2021/12/16 09:01:06;;;;;;;15.27;9.77;;;4.50;99.90;;;;;;5049757;28;20208;-71
2021/12/16 09:03:32;;;;;;;16.08;10.68;;;4.50;99.90;;;;;;5064382;28;20228;-71
2021/12/16 09:05:59;;;;;;;17.15;11.60;;;4.60;99.90;;;;;;5069505;28;20231;-71
2021/12/16 09:08:26;;;;;;;18.95;10.52;;;4.60;99.90;;;;;;5069133;28;20204;-71
2021/12/16 09:10:54;;;;;;;18.42;11.15;;;4.60;99.90;;;;;;5068740;28;20575;-71
2021/12/16 09:13:21;;;;;;;16.00;10.65;;;4.70;99.90;;;;;;5069234;28;20217;-70
2021/12/16 09:15:50;;;;;;;17.65;10.48;;;4.70;99.90;;;;;;5066281;28;20283;-70
2021/12/16 09:18:19;;;;;;;18.25;10.30;;;4.70;99.90;;;;;;5067395;28;20199;-70
2021/12/16 09:20:47;;;;;;;15.70;10.32;;;4.80;99.90;;;;;;5068522;28;20196;-70
2021/12/16 09:23:15;;;;;;;15.32;10.38;;;4.80;99.90;;;;;;5068573;28;20224;-71
2021/12/16 09:25:44;;;;;;;16.85;10.82;;;4.90;99.90;;;;;;5066155;28;20220;-71
2021/12/16 09:28:13;;;;;;;18.33;11.77;;;4.90;99.90;;;;;;5068635;28;20287;-70
2021/12/16 09:30:41;;;;;;;17.83;11.40;;;4.90;99.90;;;;;;5069044;28;20201;-71
2021/12/16 09:33:13;;;;;;;14.45;9.85;;;4.90;99.90;;;;;;5082285;28;20223;-72
2021/12/16 09:35:42;;;;;;;17.55;10.38;;;5.00;99.90;;;;;;5088750;28;20215;-72
2021/12/16 09:38:11;;;;;;;15.82;9.90;;;5.00;99.90;;;;;;5090595;28;20210;-71
2021/12/16 09:40:46;;;;;;;15.93;10.35;;;5.10;99.90;;;;;;5087353;28;20200;-72
2021/12/16 09:43:15;;;;;;;17.02;10.68;;;5.00;99.90;;;;;;5084718;28;20231;-72
2021/12/16 09:45:42;;;;;;;22.02;11.35;;;5.00;99.90;;;;;;5082705;28;20228;-71
2021/12/16 09:48:09;;;;;;;15.25;9.48;;;5.10;99.90;;;;;;5069121;28;20208;-71
2021/12/16 09:50:36;;;;;;;20.42;11.85;;;5.10;99.90;;;;;;5067344;28;20204;-70
2021/12/16 09:53:04;;;;;;;16.05;11.50;;;5.10;99.90;;;;;;5060464;28;20216;-72
2021/12/16 09:55:33;;;;;;;16.25;11.18;;;5.20;99.90;;;;;;5068513;28;20200;-71
2021/12/16 09:58:00;;;;;;;17.02;10.82;;;5.30;99.90;;;;;;5069872;28;20578;-70
2021/12/16 10:00:30;;;;;;;16.38;10.77;;;5.40;99.90;;;;;;5069787;28;20252;-72
2021/12/16 10:02:58;;;;;;;16.25;10.85;;;5.40;99.90;;;;;;5068831;28;20227;-71
2021/12/16 10:05:26;;;;;;;16.20;10.00;;;5.40;99.90;;;;;;5069220;28;20577;-71
2021/12/16 10:07:53;;;;;;;15.20;9.25;;;5.50;99.90;;;;;;5069571;28;20206;-71
2021/12/16 10:10:25;;;;;;;15.23;10.57;;;5.40;99.90;;;;;;5069448;28;20212;-72
2021/12/16 10:12:54;;;;;;;16.77;10.77;;;5.50;99.90;;;;;;5068959;28;20594;-72
2021/12/16 10:18:13;;;;;;;14.95;9.68;;;5.30;99.90;;;;;;5069309;28;20566;-72
2021/12/16 10:20:44;;;;;;;16.20;10.68;;;5.40;99.90;;;;;;5068674;28;20207;-72
2021/12/16 10:23:14;;;;;;;15.80;10.45;;;5.40;99.90;;;;;;5069026;28;20587;-72
2021/12/16 10:25:43;;;;;;;16.50;10.02;;;5.50;99.90;;;;;;5067965;28;20589;-72
2021/12/16 10:28:13;;;;;;;18.30;11.00;;;5.50;99.90;;;;;;5069259;28;20200;-73
2021/12/16 10:30:53;;;;;;;17.35;10.65;;;5.50;99.90;;;;;;5069758;28;20208;-72
2021/12/16 10:33:28;;;;;;;17.45;11.20;;;5.50;99.90;;;;;;5068836;28;20718;-72
2021/12/16 10:36:12;;;;;;;15.63;10.20;;;5.60;99.90;;;;;;5068998;28;20678;-72
2021/12/16 10:38:41;;;;;;;16.75;10.45;;;5.60;99.90;;;;;;5069048;28;20207;-72
2021/12/16 10:41:16;;;;;;;17.85;10.48;;;5.60;99.90;;;;;;5067705;28;20208;-72
2021/12/16 10:43:46;;;;;;;16.33;10.35;;;5.60;99.90;;;;;;5069232;28;20228;-72
2021/12/16 10:46:15;;;;;;;14.63;10.07;;;5.60;99.90;;;;;;5070374;28;20232;-72
2021/12/16 10:48:45;;;;;;;14.30;10.25;;;5.70;99.90;;;;;;5068641;28;20208;-72
2021/12/16 10:51:18;;;;;;;17.83;10.20;;;5.70;99.90;;;;;;5070792;28;20204;-71
2021/12/16 10:53:53;;;;;;;13.57;8.85;;;5.70;99.90;;;;;;5072306;28;20220;-73
2021/12/16 10:56:25;;;;;;;16.80;10.80;;;5.70;99.90;;;;;;5073339;28;20204;-72
2021/12/16 10:58:56;;;;;;;15.95;10.85;;;5.60;99.90;;;;;;5073829;28;20618;-71
2021/12/16 11:01:58;;;;;;;13.40;9.35;;;5.60;99.90;;;;;;5072163;28;20205;-72
2021/12/16 11:04:32;;;;;;;16.40;9.90;;;5.60;99.90;;;;;;5072001;28;20212;-72
2021/12/16 11:07:03;;;;;;;14.43;10.95;;;5.70;99.90;;;;;;5072002;28;20229;-72
2021/12/16 11:09:40;;;;;;;13.50;9.70;;;5.80;99.90;;;;;;5073003;28;20459;-72
2021/12/16 11:12:23;;;;;;;12.32;9.25;;;5.80;99.90;;;;;;5070857;28;20211;-72
2021/12/16 11:14:52;;;;;;;14.60;10.10;;;5.90;99.90;;;;;;5072240;28;20230;-71
2021/12/16 11:17:21;;;;;;;15.57;10.52;;;5.90;99.90;;;;;;5064491;28;20204;-72
2021/12/16 11:19:54;;;;;;;14.82;9.60;;;5.90;99.90;;;;;;5072437;28;20690;-72
2021/12/16 11:22:23;;;;;;;14.88;9.50;;;5.90;99.90;;;;;;5071149;28;20224;-71
2021/12/16 11:24:52;;;;;;;17.70;9.82;;;6.00;99.90;;;;;;5071603;28;20219;-71
2021/12/16 11:27:35;;;;;;;14.77;9.30;;;6.00;99.90;;;;;;5069533;28;20287;-71
2021/12/16 11:30:27;;;;;;;13.55;10.20;;;6.00;99.90;;;;;;5068272;28;20224;-71
2021/12/16 11:32:55;;;;;;;13.10;9.23;;;6.10;99.90;;;;;;5071033;28;20221;-71
2021/12/16 11:35:37;;;;;;;12.63;8.90;;;6.00;99.90;;;;;;5071368;28;20203;-71
2021/12/16 11:38:09;;;;;;;14.98;9.93;;;6.00;99.90;;;;;;5071392;28;20200;-71
2021/12/16 11:41:21;;;;;;;14.13;9.55;;;6.00;99.90;;;;;;5070550;28;20239;-72
2021/12/16 11:44:05;;;;;;;16.42;11.00;;;6.10;99.90;;;;;;5071340;28;20739;-71
2021/12/16 11:46:41;;;;;;;16.92;10.02;;;6.10;99.90;;;;;;5068536;28;20610;-71
2021/12/16 11:49:11;;;;;;;15.43;9.65;;;6.10;99.90;;;;;;5071495;28;20203;-72
2021/12/16 11:51:42;;;;;;;16.42;10.57;;;6.10;99.90;;;;;;5070547;28;20295;-71
2021/12/16 11:54:19;;;;;;;17.13;11.02;;;6.20;99.90;;;;;;5071121;28;20227;-71
2021/12/16 11:56:48;;;;;;;16.92;10.68;;;6.20;99.90;;;;;;5070601;28;20578;-72
2021/12/16 11:59:24;;;;;;;16.05;11.05;;;6.10;99.90;;;;;;5071530;28;20223;-73
2021/12/16 12:01:52;;;;;;;17.60;10.00;;;6.20;99.90;;;;;;5070274;28;20211;-73
2021/12/16 12:04:27;;;;;;;14.30;9.57;;;6.20;99.90;;;;;;5071296;28;20228;-72
2021/12/16 12:06:55;;;;;;;14.82;11.00;;;6.20;99.90;;;;;;5070487;28;20732;-73
2021/12/16 12:09:34;;;;;;;16.15;10.98;;;6.20;99.90;;;;;;5071416;28;20200;-72
2021/12/16 12:12:01;;;;;;;16.67;9.93;;;6.20;99.90;;;;;;5069903;28;20207;-73
2021/12/16 12:14:32;;;;;;;16.42;10.60;;;6.20;99.90;;;;;;5070307;28;20207;-72
2021/12/16 12:17:08;;;;;;;20.60;11.85;;;6.20;99.90;;;;;;5070806;28;20197;-72
2021/12/16 12:19:43;;;;;;;16.23;10.63;;;6.30;99.90;;;;;;5070166;28;20206;-72
2021/12/16 12:22:11;;;;;;;13.50;9.18;;;6.20;99.90;;;;;;5070205;28;20204;-72
2021/12/16 12:24:40;;;;;;;15.13;9.50;;;6.10;99.90;;;;;;5070762;28;20200;-72
2021/12/16 12:27:11;;;;;;;15.00;10.15;;;6.10;99.90;;;;;;5069797;28;20220;-72
2021/12/16 12:29:41;;;;;;;14.63;9.88;;;6.10;99.90;;;;;;5070251;28;20228;-72
2021/12/16 12:32:11;;;;;;;14.60;9.85;;;6.10;99.90;;;;;;5069259;28;20192;-71
2021/12/16 12:34:41;;;;;;;17.73;9.70;;;6.10;99.90;;;;;;5069865;28;20208;-72
2021/12/16 12:37:09;;;;;;;15.45;10.30;;;6.20;99.90;;;;;;5070631;28;20207;-72
2021/12/16 12:39:42;;;;;;;12.75;9.30;;;6.20;99.90;;;;;;5070360;28;20200;-72
2021/12/16 12:42:11;;;;;;;17.33;10.43;;;6.20;99.90;;;;;;5069120;28;20295;-71
2021/12/16 12:44:39;;;;;;;13.75;10.07;;;6.20;99.90;;;;;;5070775;28;20204;-72
2021/12/16 12:47:10;;;;;;;15.63;10.40;;;6.30;99.90;;;;;;5069962;28;20542;-72
2021/12/16 12:49:37;;;;;;;15.07;9.88;;;6.40;99.90;;;;;;5069976;28;20200;-72
2021/12/16 12:52:08;;;;;;;12.77;9.45;;;6.40;99.90;;;;;;5069665;28;20205;-72
2021/12/16 12:54:38;;;;;;;15.38;10.40;;;6.40;99.90;;;;;;5070189;28;20277;-72
2021/12/16 12:57:20;;;;;;;16.98;10.43;;;6.40;99.90;;;;;;5066341;28;20199;-72
2021/12/16 12:59:47;;;;;;;12.02;9.32;;;6.40;99.90;;;;;;5069851;28;20196;-72
2021/12/16 13:02:17;;;;;;;11.85;8.93;;;6.40;99.90;;;;;;5066263;28;20215;-72
2021/12/16 13:04:50;;;;;;;16.45;10.63;;;6.50;99.90;;;;;;5070259;28;20556;-72
2021/12/16 13:07:16;;;;;;;15.68;10.05;;;6.40;99.90;;;;;;5070058;28;20227;-72
2021/12/16 13:09:47;;;;;;;16.63;10.82;;;6.50;99.90;;;;;;5069792;28;20204;-72
2021/12/16 13:12:35;;;;;;;11.50;9.15;;;6.60;99.90;;;;;;5069401;28;20204;-72
2021/12/16 13:15:13;;;;;;;16.90;11.00;;;6.70;99.90;;;;;;5069749;28;20204;-72
2021/12/16 13:23:34;;;;;;;14.68;9.63;;;6.80;99.90;;;;;;5069816;28;20265;-72
2021/12/16 13:26:33;;;;;;;14.25;9.75;;;6.80;99.90;;;;;;5068816;28;20306;-72
2021/12/16 13:29:14;;;;;;;15.10;9.85;;;6.90;99.90;;;;;;5069703;28;20204;-73
2021/12/16 13:31:50;;;;;;;15.18;9.93;;;6.90;99.90;;;;;;5068454;28;20682;-73
2021/12/16 13:34:37;;;;;;;12.70;9.05;;;6.90;99.90;;;;;;5069600;28;20220;-72
2021/12/16 13:37:21;;;;;;;15.63;10.27;;;6.90;99.90;;;;;;5069701;28;20333;-72
2021/12/16 13:39:51;;;;;;;13.88;9.70;;;6.90;99.90;;;;;;5069390;28;20200;-71
2021/12/16 13:42:20;;;;;;;15.20;10.68;;;6.90;99.90;;;;;;5068813;28;20228;-72
2021/12/16 13:45:01;;;;;;;19.92;11.57;;;6.90;99.90;;;;;;5069238;28;20726;-71
2021/12/16 14:05:25;;;;;;;13.43;9.15;;;6.70;99.90;;;;;;5067708;28;20207;-72
2021/12/16 14:07:58;;;;;;;12.00;8.77;;;6.70;99.90;;;;;;5069384;28;20251;-72
2021/12/16 14:10:35;;;;;;;15.38;9.20;;;6.80;99.90;;;;;;5068993;28;20200;-72
2021/12/16 14:16:40;;;;;;;13.10;9.63;;;6.80;99.90;;;;;;5068539;28;20242;-72
2021/12/16 14:25:10;;;;;;;14.05;10.23;;;6.70;99.90;;;;;;5068755;28;20800;-72
2021/12/16 14:42:30;;;;;;;15.70;9.27;;;6.60;99.90;;;;;;5071574;28;20234;-72
2021/12/16 14:45:24;;;;;;;19.08;11.15;;;6.60;99.90;;;;;;5072909;28;20399;-72
2021/12/16 14:48:19;;;;;;;13.40;9.75;;;6.60;99.90;;;;;;5072262;28;20261;-73
2021/12/16 14:50:52;;;;;;;15.48;10.95;;;6.60;99.90;;;;;;5072202;28;20204;-72
2021/12/16 14:53:26;;;;;;;13.75;11.02;;;6.50;99.90;;;;;;5072072;28;20581;-72
2021/12/16 14:55:57;;;;;;;15.32;11.07;;;6.50;99.90;;;;;;5071533;28;20212;-73
2021/12/16 14:58:25;;;;;;;13.15;10.25;;;6.50;99.90;;;;;;5071824;28;20204;-73
2021/12/16 15:00:56;;;;;;;17.02;10.70;;;6.40;99.90;;;;;;5071763;28;20204;-72
2021/12/16 15:03:26;;;;;;;15.68;11.05;;;6.40;99.90;;;;;;5068858;28;20216;-72
2021/12/16 15:05:58;;;;;;;14.13;9.90;;;6.40;99.90;;;;;;5070819;28;20201;-73
2021/12/16 15:08:35;;;;;;;17.08;10.85;;;6.30;99.90;;;;;;5072641;28;20211;-72
2021/12/16 15:11:05;;;;;;;15.48;10.85;;;6.20;99.90;;;;;;5069930;28;20204;-72
2021/12/16 15:13:38;;;;;;;16.45;10.32;;;6.10;99.90;;;;;;5073019;28;20255;-72
2021/12/16 15:16:24;;;;;;;14.35;9.90;;;6.10;99.90;;;;;;5072039;28;20253;-72
2021/12/16 15:39:50;;;;;;;14.57;8.50;;;5.80;99.90;;;;;;5009540;28;20250;-94
2021/12/16 15:45:34;;;;;;;13.75;10.38;;;5.60;99.90;;;;;;5078642;28;20377;-95
2021/12/16 15:48:04;;;;;;;14.05;9.25;;;5.50;99.90;;;;;;5077612;28;20209;-96
2021/12/16 15:50:33;;;;;;;13.52;8.80;;;5.40;99.90;;;;;;5092944;22;20697;-65
2021/12/16 15:53:06;;;;;;;12.40;9.13;;;5.40;99.90;;;;;;5089806;28;20219;-65